Time;durP1;ratioP1;P1;durP2;ratioP2;P2;SDS_P1;SDS_P2;PMS_P1;PMS_P2;Temp;Humidity;BMP_temperature;BMP_pressure;BME280_temperature;BME280_humidity;BME280_pressure;Samples;Min_cycle;Max_cycle;Signal;HPM_P1;HPM_P2
2022/03/03 00:00:26;;;;;;;;;;;2.30;81.20;;;0.96;77.01;95977.25;4151718;33;19901;-84
2022/03/03 00:02:55;;;;;;;;;;;2.30;81.20;;;0.98;76.82;95977.84;4152547;33;20215;-85
2022/03/03 00:05:24;;;;;;;;;;;2.30;81.20;;;0.97;76.93;95979.72;4174917;33;20105;-84
2022/03/03 00:07:52;;;;;;;;;;;2.30;81.20;;;0.97;76.88;95989.69;4151764;33;20187;-84
2022/03/03 00:10:21;;;;;;;;;;;2.30;81.20;;;0.97;76.84;95985.13;4199808;33;20617;-84
2022/03/03 00:12:49;;;;;;;;;;;2.30;81.10;;;0.98;76.96;95975.16;4200143;33;20202;-84
2022/03/03 00:15:19;;;;;;;;;;;2.30;81.30;;;0.97;76.90;95976.22;4175116;33;20004;-84
2022/03/03 00:17:48;;;;;;;;;;;2.30;81.30;;;0.98;77.03;95975.16;4198143;33;19906;-84
2022/03/03 00:20:16;;;;;;;;;;;2.30;81.30;;;0.96;76.83;95978.06;4174786;33;20207;-84
2022/03/03 00:22:45;;;;;;;;;;;2.30;81.30;;;0.96;77.00;95972.69;4174668;33;19913;-84
2022/03/03 00:25:13;;;;;;;;;;;2.30;81.30;;;0.96;76.80;95966.47;4175045;33;20500;-84
2022/03/03 00:27:42;;;;;;;;;;;2.30;81.30;;;0.98;77.00;95972.44;4150900;33;19901;-84
2022/03/03 00:30:11;;;;;;;;;;;2.30;81.40;;;0.97;77.08;95973.53;4174440;33;20192;-84
2022/03/03 00:32:41;;;;;;;;;;;2.30;81.40;;;0.97;77.02;95973.53;4174730;33;20542;-84
2022/03/03 00:35:10;;;;;;;;;;;2.30;81.40;;;0.97;77.23;95973.53;4151826;33;19912;-84
2022/03/03 00:37:38;;;;;;;;;;;2.30;81.40;;;0.97;77.01;95968.13;4153342;33;19902;-84
2022/03/03 00:40:09;;;;;;;;;;;2.30;81.30;;;0.97;76.85;95974.34;4178168;33;20225;-84
2022/03/03 00:42:37;;;;;;;;;;;2.30;81.30;;;0.98;77.33;95975.16;4177636;33;20694;-84
2022/03/03 00:45:07;;;;;;;;;;;2.30;81.40;;;0.96;77.00;95971.88;4177853;33;20222;-84
2022/03/03 00:47:36;;;;;;;;;;;2.30;81.50;;;0.96;77.06;95974.56;4176951;33;19908;-84
2022/03/03 00:50:07;;;;;;;;;;;2.30;81.40;;;0.94;77.06;95961.28;4174379;33;20434;-84
2022/03/03 00:52:35;;;;;;;;;;;2.30;81.40;;;0.94;77.02;95957.78;4151328;33;19902;-84
2022/03/03 00:55:05;;;;;;;;;;;2.30;81.40;;;0.96;77.15;95961.09;4151937;33;20245;-84
2022/03/03 00:57:33;;;;;;;;;;;2.30;81.40;;;0.95;76.73;95954.84;4174365;33;20199;-84
2022/03/03 01:00:02;;;;;;;;;;;2.30;81.30;;;0.96;76.78;95953.00;4150616;33;19902;-84
2022/03/03 01:02:31;;;;;;;;;;;2.30;81.40;;;0.96;76.94;95955.69;4174758;33;20203;-84
2022/03/03 01:04:59;;;;;;;;;;;2.30;81.50;;;0.96;77.13;95956.50;4175393;33;19905;-84
2022/03/03 01:07:29;;;;;;;;;;;2.30;81.40;;;0.96;76.90;95950.31;4174872;33;20206;-84
2022/03/03 01:09:58;;;;;;;;;;;2.30;81.40;;;0.95;76.97;95956.72;4149996;33;20226;-84
2022/03/03 01:12:26;;;;;;;;;;;2.30;81.30;;;0.96;76.89;95955.69;4197420;33;19902;-84
2022/03/03 01:14:55;;;;;;;;;;;2.30;81.30;;;0.96;77.05;95955.69;4174213;33;20220;-84
2022/03/03 01:17:23;;;;;;;;;;;2.30;81.40;;;0.96;76.93;95955.69;4197704;33;20143;-84
2022/03/03 01:19:52;;;;;;;;;;;2.30;81.30;;;0.95;76.81;95954.03;4173534;33;20235;-85
2022/03/03 01:22:20;;;;;;;;;;;2.30;81.40;;;0.96;77.23;95953.81;4150319;33;20203;-84
2022/03/03 01:24:50;;;;;;;;;;;2.30;81.50;;;0.96;76.71;95947.59;4151894;33;19909;-85
2022/03/03 01:27:19;;;;;;;;;;;2.30;81.50;;;0.95;77.10;95944.06;4173604;33;19901;-84
2022/03/03 01:29:47;;;;;;;;;;;2.30;81.40;;;0.94;77.04;95949.69;4172900;33;20191;-84
2022/03/03 01:32:15;;;;;;;;;;;2.30;81.50;;;0.95;77.26;95949.47;4173953;33;19906;-84
2022/03/03 01:34:44;;;;;;;;;;;2.30;81.40;;;0.96;76.96;95950.31;4149450;33;20207;-84
2022/03/03 01:37:12;;;;;;;;;;;2.30;81.40;;;0.96;77.07;95947.59;4190210;33;19902;-84
2022/03/03 01:40:27;;;;;;;;;;;2.30;81.50;;;0.92;77.07;95944.50;4139314;33;20223;-84
2022/03/03 01:43:38;;;;;;;;;;;2.30;81.50;;;0.95;76.95;95948.66;4139941;33;19902;-84
2022/03/03 01:46:10;;;;;;;;;;;2.30;81.50;;;0.94;77.01;95952.38;4165083;33;19909;-84
2022/03/03 01:48:38;;;;;;;;;;;2.30;81.40;;;0.93;76.82;95948.84;4189417;33;20183;-84
2022/03/03 01:51:07;;;;;;;;;;;2.20;81.20;;;0.94;76.71;95942.41;4165483;33;19916;-84
2022/03/03 01:53:35;;;;;;;;;;;2.30;81.40;;;0.93;77.17;95940.75;4141679;33;20205;-84
2022/03/03 01:56:04;;;;;;;;;;;2.20;81.30;;;0.91;77.28;95935.59;4164134;33;19901;-85
2022/03/03 01:58:33;;;;;;;;;;;2.30;81.50;;;0.94;77.44;95942.41;4140259;33;19909;-85
2022/03/03 02:01:03;;;;;;;;;;;2.20;81.40;;;0.94;77.11;95936.22;4141438;33;20195;-85
2022/03/03 02:03:31;;;;;;;;;;;2.30;81.50;;;0.95;77.25;95945.94;4164514;33;20221;-85
2022/03/03 02:06:00;;;;;;;;;;;2.30;81.50;;;0.94;77.03;95941.59;4189626;33;20108;-84
2022/03/03 02:08:29;;;;;;;;;;;2.30;81.60;;;0.93;76.97;95948.84;4142179;33;20412;-84
2022/03/03 02:10:57;;;;;;;;;;;2.20;81.50;;;0.92;77.08;95947.19;4165088;33;20188;-84
2022/03/03 02:13:25;;;;;;;;;;;2.30;81.60;;;0.91;77.29;95941.00;4165058;33;19901;-84
2022/03/03 02:15:54;;;;;;;;;;;2.20;81.30;;;0.91;77.30;95943.69;4142102;33;20576;-85
2022/03/03 02:18:24;;;;;;;;;;;2.20;81.40;;;0.92;77.41;95944.50;4145655;33;20114;-84
2022/03/03 02:20:54;;;;;;;;;;;2.20;81.40;;;0.93;77.31;95950.72;4142889;33;19902;-84
2022/03/03 02:23:22;;;;;;;;;;;2.20;81.50;;;0.93;77.01;95945.34;4146171;33;19909;-84
2022/03/03 02:25:51;;;;;;;;;;;2.20;81.30;;;0.93;77.07;95945.34;4148633;33;20205;-85
2022/03/03 02:28:19;;;;;;;;;;;2.20;81.40;;;0.93;76.99;95939.94;4148579;33;19902;-84
2022/03/03 02:30:48;;;;;;;;;;;2.20;81.40;;;0.93;77.01;95934.56;4172650;33;20594;-85
2022/03/03 02:33:16;;;;;;;;;;;2.20;81.40;;;0.91;77.33;95938.28;4149427;33;19902;-85
2022/03/03 02:35:45;;;;;;;;;;;2.20;81.40;;;0.91;77.07;95932.91;4169546;33;20211;-85
2022/03/03 02:38:15;;;;;;;;;;;2.20;81.60;;;0.91;76.82;95932.91;4146291;33;19902;-85
2022/03/03 02:40:43;;;;;;;;;;;2.20;81.60;;;0.91;77.18;95932.06;4148700;33;20197;-85
2022/03/03 02:43:12;;;;;;;;;;;2.20;81.60;;;0.91;76.78;95934.75;4175237;33;19905;-85
2022/03/03 02:45:40;;;;;;;;;;;2.30;81.60;;;0.91;77.16;95940.16;4174329;33;20223;-85
2022/03/03 02:48:09;;;;;;;;;;;2.20;81.50;;;0.89;77.19;95934.97;4173866;33;20148;-85
2022/03/03 02:50:38;;;;;;;;;;;2.20;81.50;;;0.91;77.36;95938.28;4150973;33;20113;-85
2022/03/03 02:53:06;;;;;;;;;;;2.20;82.30;;;0.90;77.09;95935.81;4174439;33;20202;-85
2022/03/03 02:59:22;;;;;;;;;;;2.20;81.60;;;0.90;77.24;95933.94;4150311;33;19916;-84
2022/03/03 03:01:51;;;;;;;;;;;2.20;81.60;;;0.89;77.08;95929.59;4150030;33;19910;-85
2022/03/03 03:04:19;;;;;;;;;;;2.20;81.60;;;0.88;77.42;95924.44;4174281;33;20189;-85
2022/03/03 03:06:48;;;;;;;;;;;2.20;81.70;;;0.89;77.25;95926.09;4150263;33;19901;-84
2022/03/03 03:09:16;;;;;;;;;;;2.20;81.60;;;0.89;77.12;95929.59;4149837;33;19909;-85
2022/03/03 03:11:45;;;;;;;;;;;2.20;81.60;;;0.88;77.10;95914.47;4173712;33;20222;-85
2022/03/03 03:14:13;;;;;;;;;;;2.20;81.60;;;0.89;77.30;95920.69;4198033;33;19913;-85
2022/03/03 03:16:43;;;;;;;;;;;2.20;81.70;;;0.89;77.25;95918.81;4150655;33;20217;-85
2022/03/03 03:19:12;;;;;;;;;;;2.20;81.70;;;0.89;77.47;95913.41;4150541;33;20238;-85
2022/03/03 03:21:40;;;;;;;;;;;2.20;81.70;;;0.89;77.31;95923.38;4150196;33;19909;-85
2022/03/03 03:24:09;;;;;;;;;;;2.20;81.70;;;0.89;77.11;95924.19;4199036;33;20235;-84
2022/03/03 03:26:37;;;;;;;;;;;2.20;81.60;;;0.87;77.24;95915.50;4174842;33;19902;-85
2022/03/03 03:29:06;;;;;;;;;;;2.20;81.60;;;0.89;77.56;95915.31;4175738;33;19902;-85
2022/03/03 03:31:34;;;;;;;;;;;2.20;81.80;;;0.88;77.29;95919.03;4153122;33;20194;-84
2022/03/03 03:34:04;;;;;;;;;;;2.20;81.70;;;0.88;77.38;95922.53;4200346;33;19902;-84
2022/03/03 03:36:32;;;;;;;;;;;2.20;81.60;;;0.87;77.19;95920.91;4175421;33;19901;-84
2022/03/03 03:39:01;;;;;;;;;;;2.20;81.70;;;0.88;77.32;95927.94;4175454;33;20491;-84
2022/03/03 03:41:30;;;;;;;;;;;2.20;81.60;;;0.89;77.05;95923.38;4175843;33;19908;-84
2022/03/03 03:43:58;;;;;;;;;;;2.20;81.60;;;0.88;77.23;95922.53;4175687;33;20216;-85
2022/03/03 03:46:27;;;;;;;;;;;2.20;81.50;;;0.88;77.41;95922.53;4174460;33;20125;-85
2022/03/03 03:48:55;;;;;;;;;;;2.20;81.60;;;0.87;77.53;95915.50;4149932;33;19925;-85
2022/03/03 03:51:25;;;;;;;;;;;2.20;81.80;;;0.88;77.32;95924.44;4174004;33;20219;-85
2022/03/03 03:53:54;;;;;;;;;;;2.20;81.70;;;0.88;77.15;95922.53;4150998;33;20208;-85
2022/03/03 03:56:22;;;;;;;;;;;2.20;81.70;;;0.88;77.79;95911.78;4174412;33;20121;-85
2022/03/03 03:58:51;;;;;;;;;;;2.20;81.50;;;0.87;77.08;95910.13;4173335;33;20069;-84
2022/03/03 04:01:19;;;;;;;;;;;2.20;81.60;;;0.85;77.07;95898.72;4174001;33;19909;-85
2022/03/03 04:03:48;;;;;;;;;;;2.20;81.70;;;0.88;77.35;95909.06;4173817;33;20186;-84
2022/03/03 04:06:22;;;;;;;;;;;2.20;81.80;;;0.88;77.59;95908.25;4153056;33;19901;-85
2022/03/03 04:08:52;;;;;;;;;;;2.20;81.80;;;0.88;77.42;95905.56;4152355;33;19912;-84
2022/03/03 04:11:21;;;;;;;;;;;2.20;81.80;;;0.86;77.26;95911.16;4176444;33;20202;-85
2022/03/03 04:13:49;;;;;;;;;;;2.20;81.80;;;0.88;77.31;95922.53;4153236;33;20438;-86
2022/03/03 04:17:14;;;;;;;;;;;2.20;81.70;;;0.87;77.43;95923.59;4171935;33;19910;-85
2022/03/03 04:19:42;;;;;;;;;;;2.20;81.60;;;0.87;77.16;95920.91;4121590;33;20207;-85
2022/03/03 04:22:11;;;;;;;;;;;2.20;81.60;;;0.88;77.25;95917.16;4149291;33;19921;-85
2022/03/03 04:24:40;;;;;;;;;;;2.20;81.70;;;0.87;77.10;95907.41;4125409;33;20209;-86
2022/03/03 04:27:09;;;;;;;;;;;2.20;81.70;;;0.86;77.47;95913.84;4168370;33;20231;-85
2022/03/03 04:29:37;;;;;;;;;;;2.20;81.70;;;0.87;77.03;95915.50;4174873;33;19905;-85
2022/03/03 04:32:07;;;;;;;;;;;2.20;81.70;;;0.87;77.34;95902.03;4173468;33;20224;-85
2022/03/03 04:34:36;;;;;;;;;;;2.20;81.70;;;0.86;77.16;95902.25;4149037;33;20219;-84
2022/03/03 04:37:04;;;;;;;;;;;2.20;81.80;;;0.86;77.30;95897.69;4143877;33;19908;-85
2022/03/03 04:39:33;;;;;;;;;;;2.20;81.80;;;0.86;77.44;95911.16;4166668;33;20242;-84
2022/03/03 04:42:04;;;;;;;;;;;2.20;81.80;;;0.84;77.49;95909.72;4143544;33;19901;-85
2022/03/03 04:44:32;;;;;;;;;;;2.20;81.80;;;0.86;77.50;95918.44;4167216;33;19902;-85
2022/03/03 04:47:01;;;;;;;;;;;2.20;81.60;;;0.86;77.51;95919.22;4144506;33;20196;-85
2022/03/03 04:49:29;;;;;;;;;;;2.20;81.70;;;0.87;77.32;95926.28;4141717;33;19908;-85
2022/03/03 04:51:58;;;;;;;;;;;2.20;81.70;;;0.86;77.21;95921.94;4140754;33;19925;-85
2022/03/03 04:54:26;;;;;;;;;;;2.20;81.70;;;0.87;77.18;95917.38;4141360;33;20242;-85
2022/03/03 04:56:55;;;;;;;;;;;2.20;81.60;;;0.85;77.24;95912.19;4140361;33;19901;-85
2022/03/03 04:59:25;;;;;;;;;;;2.20;81.60;;;0.86;77.52;95919.22;4162397;33;19909;-84
2022/03/03 05:01:53;;;;;;;;;;;2.20;81.60;;;0.83;77.24;95914.31;4139695;33;19901;-85
2022/03/03 05:04:22;;;;;;;;;;;2.20;81.60;;;0.85;77.14;95917.59;4140010;33;20180;-85
2022/03/03 05:06:51;;;;;;;;;;;2.20;81.70;;;0.83;77.40;95908.91;4140036;33;19909;-85
2022/03/03 05:09:19;;;;;;;;;;;2.20;81.70;;;0.86;77.29;95923.81;4139962;33;20713;-85
2022/03/03 05:11:48;;;;;;;;;;;2.20;81.80;;;0.85;77.17;95931.06;4163216;33;19901;-85
2022/03/03 05:14:16;;;;;;;;;;;2.20;81.80;;;0.85;77.53;95922.97;4141865;33;20193;-85
2022/03/03 05:16:46;;;;;;;;;;;2.20;81.70;;;0.85;77.13;95935.63;4141789;33;19912;-85
2022/03/03 05:19:15;;;;;;;;;;;2.20;81.70;;;0.84;77.59;95932.09;4164386;33;19944;-85
2022/03/03 05:21:43;;;;;;;;;;;2.20;81.80;;;0.84;77.28;95934.78;4160791;33;20194;-85
2022/03/03 05:24:12;;;;;;;;;;;2.20;81.70;;;0.85;76.98;95946.41;4142017;33;20488;-85
2022/03/03 05:26:41;;;;;;;;;;;2.20;81.70;;;0.82;77.35;95936.91;4144065;33;19902;-84
2022/03/03 05:29:09;;;;;;;;;;;2.20;81.70;;;0.84;77.19;95936.66;4143598;33;20215;-85
2022/03/03 05:31:38;;;;;;;;;;;2.20;81.70;;;0.84;77.21;95948.25;4141685;33;19902;-85
2022/03/03 05:34:08;;;;;;;;;;;2.20;81.60;;;0.83;77.27;95945.78;4166748;33;20458;-84
2022/03/03 05:36:40;;;;;;;;;;;2.20;81.60;;;0.84;77.54;95948.25;4149291;33;19901;-85
2022/03/03 05:39:09;;;;;;;;;;;2.20;81.80;;;0.84;77.36;95942.88;4148570;33;19910;-85
2022/03/03 05:41:37;;;;;;;;;;;2.20;81.60;;;0.85;77.40;95954.50;4148939;33;20498;-85
2022/03/03 05:44:07;;;;;;;;;;;2.20;81.70;;;0.84;77.25;95948.25;4171893;33;19920;-85
2022/03/03 05:46:35;;;;;;;;;;;2.20;81.60;;;0.86;77.25;95951.56;4147695;33;20197;-84
2022/03/03 05:49:04;;;;;;;;;;;2.20;81.70;;;0.84;77.39;95950.97;4171871;33;19924;-85
2022/03/03 05:51:34;;;;;;;;;;;2.20;81.60;;;0.85;77.21;95946.41;4172112;33;20547;-86
2022/03/03 05:54:02;;;;;;;;;;;2.20;81.60;;;0.84;77.44;95948.25;4170909;33;20196;-85
2022/03/03 05:56:32;;;;;;;;;;;2.20;81.70;;;0.83;77.28;95941.25;4171639;33;19901;-84
2022/03/03 05:59:04;;;;;;;;;;;2.20;81.50;;;0.84;77.28;95953.66;4147954;33;20194;-85
2022/03/03 06:01:32;;;;;;;;;;;2.20;81.70;;;0.84;77.43;95948.25;4149012;33;20196;-85
2022/03/03 06:04:01;;;;;;;;;;;2.20;81.70;;;0.83;77.29;95952.03;4148769;33;19901;-85
2022/03/03 06:06:31;;;;;;;;;;;2.20;81.60;;;0.84;77.03;95959.03;4172754;33;20201;-85
2022/03/03 06:09:03;;;;;;;;;;;2.20;81.60;;;0.86;77.48;95966.94;4172701;33;19902;-85
2022/03/03 06:11:32;;;;;;;;;;;2.20;81.80;;;0.85;77.28;95963.41;4150914;33;20223;-85
2022/03/03 06:14:06;;;;;;;;;;;2.20;81.70;;;0.84;77.15;95961.75;4174291;33;19901;-85
2022/03/03 06:16:35;;;;;;;;;;;2.20;81.80;;;0.84;77.20;95964.44;4174589;33;20194;-85
2022/03/03 06:19:04;;;;;;;;;;;2.20;81.70;;;0.85;77.55;95963.41;4174105;33;19909;-85
2022/03/03 06:21:33;;;;;;;;;;;2.20;81.70;;;0.87;77.30;95960.50;4174185;33;19902;-85
2022/03/03 06:24:03;;;;;;;;;;;2.20;81.70;;;0.87;77.19;95964.00;4173771;33;20213;-85
2022/03/03 06:26:31;;;;;;;;;;;2.20;81.70;;;0.88;77.35;95964.84;4150661;33;20202;-85
2022/03/03 06:29:00;;;;;;;;;;;2.20;81.60;;;0.89;77.13;95966.50;4149641;33;19901;-85
2022/03/03 06:31:28;;;;;;;;;;;2.20;81.60;;;0.89;77.34;95964.63;4173769;33;19902;-85
2022/03/03 06:33:57;;;;;;;;;;;2.20;81.60;;;0.90;77.15;95955.50;4174284;33;19909;-84
2022/03/03 06:36:25;;;;;;;;;;;2.20;81.50;;;0.90;77.22;95954.69;4150873;33;20195;-84
2022/03/03 06:38:54;;;;;;;;;;;2.20;81.50;;;0.91;77.12;95946.38;4173859;33;19902;-85
2022/03/03 06:41:25;;;;;;;;;;;2.20;81.30;;;0.91;77.17;95942.84;4173609;33;20227;-85
2022/03/03 06:43:53;;;;;;;;;;;2.20;81.40;;;0.91;77.14;95937.44;4148938;33;20193;-84
2022/03/03 06:46:22;;;;;;;;;;;2.20;81.40;;;0.91;77.15;95941.00;4171644;33;19909;-85
2022/03/03 06:48:50;;;;;;;;;;;2.20;81.30;;;0.90;76.89;95942.03;4148029;33;19902;-85
2022/03/03 06:51:20;;;;;;;;;;;2.30;81.30;;;0.94;76.54;95955.88;4149134;33;20204;-85
2022/03/03 06:53:50;;;;;;;;;;;2.30;81.20;;;0.93;76.60;95942.66;4173688;33;20198;-85
2022/03/03 06:56:18;;;;;;;;;;;2.30;81.00;;;0.95;76.40;95949.47;4173289;33;20577;-85
2022/03/03 06:58:48;;;;;;;;;;;2.30;81.00;;;0.97;76.49;95949.25;4197804;33;19909;-85
2022/03/03 07:01:17;;;;;;;;;;;2.30;80.80;;;0.98;76.49;95953.59;4151608;33;19901;-84
2022/03/03 07:03:45;;;;;;;;;;;2.30;80.60;;;1.00;76.09;95956.91;4153331;33;20191;-85
2022/03/03 07:06:14;;;;;;;;;;;2.30;80.40;;;1.01;76.07;95963.94;4176126;33;19901;-84
2022/03/03 07:08:42;;;;;;;;;;;2.30;80.50;;;1.02;75.79;95965.59;4175405;33;20190;-85
2022/03/03 07:11:11;;;;;;;;;;;2.30;80.40;;;1.04;76.23;95964.34;4174589;33;19902;-85
2022/03/03 07:13:40;;;;;;;;;;;2.40;80.20;;;1.06;76.15;95969.53;4175573;33;20092;-85
2022/03/03 07:16:24;;;;;;;;;;;2.40;80.20;;;1.06;76.42;95972.22;4175643;33;20207;-84
2022/03/03 07:18:53;;;;;;;;;;;2.40;80.20;;;1.07;76.17;95958.50;4172499;33;20547;-85
2022/03/03 07:21:31;;;;;;;;;;;2.40;80.10;;;1.11;76.06;95955.38;4148644;33;20210;-85
2022/03/03 07:24:03;;;;;;;;;;;2.40;80.20;;;1.15;75.73;95943.94;4147361;33;19902;-85
2022/03/03 07:26:33;;;;;;;;;;;2.50;80.10;;;1.19;75.65;95950.56;4146745;33;20068;-85
2022/03/03 07:29:04;;;;;;;;;;;2.50;80.00;;;1.23;75.85;95946.38;4193337;33;20197;-85
2022/03/03 07:31:34;;;;;;;;;;;2.50;80.20;;;1.27;75.86;95945.94;4147655;33;20199;-84
2022/03/03 07:34:03;;;;;;;;;;;2.60;80.30;;;1.30;76.00;95940.13;4146759;33;20222;-84
2022/03/03 07:36:34;;;;;;;;;;;2.60;80.30;;;1.31;76.29;95950.69;4194207;33;19909;-85
2022/03/03 07:39:05;;;;;;;;;;;2.60;80.20;;;1.32;75.84;95944.25;4169247;33;19909;-84
2022/03/03 07:41:33;;;;;;;;;;;2.60;80.10;;;1.33;76.08;95950.47;4169971;33;20174;-84
2022/03/03 07:44:02;;;;;;;;;;;2.60;80.20;;;1.34;75.70;95947.56;4146528;33;20197;-84
2022/03/03 07:46:30;;;;;;;;;;;2.70;80.30;;;1.35;75.98;95951.09;4169299;33;20200;-85
2022/03/03 07:49:00;;;;;;;;;;;2.70;80.20;;;1.34;75.90;95944.03;4168925;33;20110;-84
2022/03/03 07:51:29;;;;;;;;;;;2.70;80.20;;;1.39;75.89;95955.00;4146419;33;20185;-84
2022/03/03 07:53:57;;;;;;;;;;;2.70;80.20;;;1.39;75.84;95944.19;4146444;33;20453;-84
2022/03/03 07:56:29;;;;;;;;;;;2.70;80.10;;;1.43;75.94;95948.13;4193950;33;19916;-84
2022/03/03 07:59:02;;;;;;;;;;;2.70;80.10;;;1.44;75.74;95936.28;4145635;33;20226;-83
2022/03/03 08:01:31;;;;;;;;;;;2.80;80.20;;;1.49;75.67;95933.75;4147904;33;20221;-84
2022/03/03 08:04:02;;;;;;;;;;;2.80;80.20;;;1.55;75.86;95933.91;4172377;33;20091;-84
2022/03/03 08:06:32;;;;;;;;;;;2.80;80.00;;;1.60;75.60;95940.31;4172484;33;19909;-85
2022/03/03 08:09:00;;;;;;;;;;;2.90;80.10;;;1.64;75.72;95932.59;4170857;33;20217;-84
2022/03/03 08:11:29;;;;;;;;;;;2.90;80.00;;;1.69;75.15;95927.38;4144532;33;20227;-85
2022/03/03 08:13:58;;;;;;;;;;;2.90;79.80;;;1.72;74.83;95934.19;4122139;33;19913;-84
2022/03/03 08:16:27;;;;;;;;;;;3.00;79.70;;;1.75;75.27;95929.16;4147510;33;20480;-84
2022/03/03 08:18:56;;;;;;;;;;;3.00;79.50;;;1.78;74.69;95931.44;4124230;33;20199;-85
2022/03/03 08:21:26;;;;;;;;;;;3.00;79.50;;;1.80;75.26;95923.13;4121605;33;19902;-84
2022/03/03 08:23:58;;;;;;;;;;;3.10;79.40;;;1.85;74.87;95923.28;4144620;33;19902;-84
2022/03/03 08:26:26;;;;;;;;;;;3.10;79.30;;;1.87;75.02;95923.06;4121612;33;19902;-85
2022/03/03 08:28:55;;;;;;;;;;;3.10;79.20;;;1.91;74.64;95917.00;4142840;33;20500;-84
2022/03/03 08:31:28;;;;;;;;;;;3.20;79.10;;;1.93;74.61;95916.75;4162273;33;20279;-84
2022/03/03 08:34:02;;;;;;;;;;;3.20;79.00;;;1.97;74.88;95917.97;4115771;33;19913;-84
2022/03/03 08:36:36;;;;;;;;;;;3.20;78.90;;;1.99;74.45;95922.09;4184622;33;19902;-84
2022/03/03 08:39:07;;;;;;;;;;;3.20;78.70;;;1.99;74.28;95924.00;4140388;33;20133;-84
2022/03/03 08:41:37;;;;;;;;;;;3.20;78.50;;;1.94;74.80;95913.84;4140745;33;19901;-84
2022/03/03 08:44:07;;;;;;;;;;;3.20;78.50;;;1.92;74.33;95915.94;4140822;33;19902;-84
2022/03/03 08:46:37;;;;;;;;;;;3.20;78.60;;;1.90;74.84;95919.91;4134434;33;19994;-83
2022/03/03 08:49:07;;;;;;;;;;;3.20;78.70;;;1.84;74.68;95922.47;4110702;33;19910;-84
2022/03/03 08:51:37;;;;;;;;;;;3.10;78.90;;;1.80;75.28;95915.84;4135426;33;20217;-83
2022/03/03 08:54:05;;;;;;;;;;;3.10;79.10;;;1.76;75.07;95927.31;4112602;33;20190;-84
2022/03/03 08:56:34;;;;;;;;;;;3.10;79.30;;;1.72;75.06;95926.09;4132573;33;19901;-83
2022/03/03 08:59:02;;;;;;;;;;;3.00;79.30;;;1.67;75.62;95926.75;4185841;33;20203;-84
2022/03/03 09:01:31;;;;;;;;;;;3.00;79.50;;;1.64;75.60;95929.88;4163126;33;19901;-84
2022/03/03 09:03:59;;;;;;;;;;;3.00;79.60;;;1.59;75.93;95922.47;4142505;33;20212;-84
2022/03/03 09:06:28;;;;;;;;;;;2.90;79.80;;;1.57;75.82;95918.34;4165244;33;19906;-84
2022/03/03 09:08:58;;;;;;;;;;;2.90;79.90;;;1.54;76.47;95935.81;4164353;33;20390;-84
2022/03/03 09:11:27;;;;;;;;;;;2.90;80.10;;;1.51;76.13;95928.16;4141505;33;19909;-83
2022/03/03 09:13:55;;;;;;;;;;;2.80;80.00;;;1.48;76.21;95929.41;4165315;33;20202;-84
2022/03/03 09:16:26;;;;;;;;;;;2.80;80.20;;;1.45;75.84;95924.47;4164837;33;19916;-84
2022/03/03 09:18:54;;;;;;;;;;;2.80;80.30;;;1.45;76.57;95926.31;4164676;33;20201;-83
2022/03/03 09:21:23;;;;;;;;;;;2.80;80.30;;;1.43;76.36;95934.63;4164939;33;20204;-84
2022/03/03 09:23:51;;;;;;;;;;;2.80;80.40;;;1.41;76.19;95927.81;4142044;33;20224;-83
2022/03/03 09:26:22;;;;;;;;;;;2.80;80.50;;;1.40;76.20;95929.66;4167341;33;20208;-84
2022/03/03 09:28:50;;;;;;;;;;;2.80;80.60;;;1.39;76.19;95933.41;4147531;33;19902;-84
2022/03/03 09:31:19;;;;;;;;;;;2.70;80.50;;;1.37;76.10;95933.63;4165928;33;20269;-84
2022/03/03 09:33:47;;;;;;;;;;;2.70;80.60;;;1.38;76.67;95945.25;4167336;33;19902;-84
2022/03/03 09:36:19;;;;;;;;;;;2.70;80.60;;;1.36;76.63;95933.84;4144053;33;20199;-84
2022/03/03 09:38:49;;;;;;;;;;;2.70;80.80;;;1.33;76.48;95928.91;4120869;33;20049;-84
2022/03/03 09:41:18;;;;;;;;;;;2.70;80.70;;;1.36;76.43;95933.84;4166778;33;19906;-84
2022/03/03 09:43:49;;;;;;;;;;;2.70;80.70;;;1.35;76.34;95932.22;4120352;33;20223;-84
2022/03/03 09:46:17;;;;;;;;;;;2.70;80.70;;;1.35;76.57;95935.72;4120154;33;20210;-84
2022/03/03 09:48:46;;;;;;;;;;;2.70;80.60;;;1.34;76.57;95930.56;4165709;33;19902;-84
2022/03/03 09:51:23;;;;;;;;;;;2.70;80.70;;;1.32;76.15;95928.06;4155698;33;20208;-84
2022/03/03 09:53:55;;;;;;;;;;;2.70;80.80;;;1.33;76.38;95937.81;4118713;33;20550;-84
2022/03/03 09:56:24;;;;;;;;;;;2.70;80.70;;;1.33;76.44;95928.91;4166166;33;20193;-84
2022/03/03 09:58:54;;;;;;;;;;;2.70;80.60;;;1.33;76.40;95934.31;4141593;33;19909;-84
2022/03/03 10:01:23;;;;;;;;;;;2.70;80.70;;;1.33;75.80;95928.91;4119621;33;19902;-84
2022/03/03 10:03:51;;;;;;;;;;;2.70;80.70;;;1.29;76.38;95927.69;4141249;33;20531;-84
2022/03/03 10:06:22;;;;;;;;;;;2.70;80.80;;;1.32;76.55;95924.56;4117647;33;20228;-84
2022/03/03 10:08:51;;;;;;;;;;;2.60;80.60;;;1.32;76.54;95927.25;4163882;33;20112;-84
2022/03/03 10:11:19;;;;;;;;;;;2.60;80.60;;;1.29;76.35;95925.81;4188045;33;20106;-84
2022/03/03 10:13:50;;;;;;;;;;;2.60;80.60;;;1.31;76.35;95925.59;4141783;33;19902;-83
2022/03/03 10:16:24;;;;;;;;;;;2.60;80.60;;;1.30;76.77;95918.56;4165075;33;20207;-84
2022/03/03 10:18:59;;;;;;;;;;;2.60;80.70;;;1.29;76.66;95922.28;4139298;33;20216;-83
2022/03/03 10:21:32;;;;;;;;;;;2.60;80.60;;;1.29;76.49;95919.59;4160472;33;20863;-84
2022/03/03 10:24:01;;;;;;;;;;;2.60;80.60;;;1.29;76.38;95923.09;4160320;33;20628;-84
2022/03/03 10:26:38;;;;;;;;;;;2.60;80.60;;;1.29;76.34;95925.00;4159938;33;20634;-84
2022/03/03 10:29:16;;;;;;;;;;;2.60;80.70;;;1.28;76.69;95916.09;4136020;33;20198;-84
2022/03/03 10:31:51;;;;;;;;;;;2.60;80.80;;;1.28;76.35;95915.25;4159641;33;19902;-84
2022/03/03 10:34:21;;;;;;;;;;;2.60;80.70;;;1.29;76.42;95906.13;4160022;33;20214;-84
2022/03/03 10:37:02;;;;;;;;;;;2.60;80.60;;;1.30;76.60;95913.16;4160489;33;20208;-84
2022/03/03 10:39:41;;;;;;;;;;;2.60;80.70;;;1.29;76.24;95906.91;4138428;33;20587;-84
2022/03/03 10:42:16;;;;;;;;;;;2.60;80.60;;;1.30;76.59;95902.38;4161727;33;19995;-84
2022/03/03 10:44:45;;;;;;;;;;;2.60;80.60;;;1.30;76.53;95907.75;4161819;33;20203;-84
2022/03/03 10:47:17;;;;;;;;;;;2.60;80.60;;;1.30;76.57;95905.88;4151131;33;20125;-84
2022/03/03 10:49:47;;;;;;;;;;;2.60;80.60;;;1.31;76.61;95904.84;4162975;33;20527;-84
2022/03/03 10:52:17;;;;;;;;;;;2.70;80.80;;;1.30;76.59;95895.09;4140394;33;20186;-84
2022/03/03 10:54:53;;;;;;;;;;;2.60;80.60;;;1.30;76.18;95894.28;4145330;33;20191;-84
2022/03/03 10:57:41;;;;;;;;;;;2.60;80.50;;;1.30;76.19;95896.97;4146208;33;20217;-84
2022/03/03 11:00:12;;;;;;;;;;;2.60;80.60;;;1.29;76.70;95893.44;4139981;33;20194;-84
2022/03/03 11:02:44;;;;;;;;;;;2.60;80.50;;;1.30;76.60;95886.19;4163445;33;20180;-84
2022/03/03 11:05:13;;;;;;;;;;;2.60;80.60;;;1.28;76.38;95894.50;4164016;33;20192;-84
2022/03/03 11:07:44;;;;;;;;;;;2.60;80.60;;;1.27;76.69;95892.00;4163574;33;20201;-84
2022/03/03 11:10:14;;;;;;;;;;;2.60;80.60;;;1.28;76.87;95893.66;4164070;33;19908;-84
2022/03/03 11:12:43;;;;;;;;;;;2.60;80.70;;;1.23;76.59;95892.44;4164699;33;20216;-84
2022/03/03 11:15:12;;;;;;;;;;;2.60;80.80;;;1.25;76.82;95886.00;4119006;33;20493;-84
2022/03/03 11:17:42;;;;;;;;;;;2.60;80.70;;;1.23;76.60;95881.66;4113017;33;19909;-84
2022/03/03 11:20:12;;;;;;;;;;;2.60;80.80;;;1.23;76.88;95884.34;4112773;33;20758;-84
2022/03/03 11:22:41;;;;;;;;;;;2.50;80.90;;;1.21;76.43;95882.94;4135578;33;20207;-84
2022/03/03 11:25:13;;;;;;;;;;;2.50;80.90;;;1.21;76.46;95883.78;4158768;33;19906;-84
2022/03/03 11:27:44;;;;;;;;;;;2.50;80.80;;;1.20;76.87;95871.34;4111660;33;19909;-84
2022/03/03 11:30:19;;;;;;;;;;;2.50;80.90;;;1.20;76.67;95878.59;4112053;33;20189;-84
2022/03/03 11:33:23;;;;;;;;;;;2.50;81.00;;;1.20;76.67;95875.88;4134798;33;19902;-84
2022/03/03 11:35:56;;;;;;;;;;;2.50;80.90;;;1.19;76.73;95875.06;4112450;33;20217;-84
2022/03/03 11:38:28;;;;;;;;;;;2.50;81.00;;;1.19;76.71;95875.06;4135279;33;20202;-84
2022/03/03 11:40:59;;;;;;;;;;;2.50;81.00;;;1.18;76.61;95868.03;4113608;33;20461;-84
2022/03/03 11:43:28;;;;;;;;;;;2.50;81.10;;;1.17;76.83;95863.69;4159205;33;20198;-84
2022/03/03 11:45:58;;;;;;;;;;;2.50;81.10;;;1.19;76.72;95863.44;4115061;33;20237;-84
2022/03/03 11:48:37;;;;;;;;;;;2.50;81.10;;;1.18;76.82;95865.34;4138364;33;20115;-84
2022/03/03 11:51:34;;;;;;;;;;;2.50;81.10;;;1.18;76.78;95857.25;4121881;33;20568;-84